sensor_id;sensor_type;location;lat;lon;timestamp;P1;durP1;ratioP1;P2;durP2;ratioP2
71116;SDS011;58775;46.992;9.518;2023-03-05T00:01:57;45.00;;;19.52;;
71116;SDS011;58775;46.992;9.518;2023-03-05T00:03:58;54.87;;;19.77;;
71116;SDS011;58775;46.992;9.518;2023-03-05T00:06:00;47.45;;;20.67;;
71116;SDS011;58775;46.992;9.518;2023-03-05T00:08:01;47.90;;;19.90;;
71116;SDS011;58775;46.992;9.518;2023-03-05T00:10:02;48.72;;;20.48;;
71116;SDS011;58775;46.992;9.518;2023-03-05T00:12:05;46.37;;;20.10;;
71116;SDS011;58775;46.992;9.518;2023-03-05T00:14:06;48.85;;;19.85;;
71116;SDS011;58775;46.992;9.518;2023-03-05T00:16:09;47.83;;;20.00;;
71116;SDS011;58775;46.992;9.518;2023-03-05T00:18:11;48.75;;;19.42;;
71116;SDS011;58775;46.992;9.518;2023-03-05T00:20:12;51.10;;;18.87;;
71116;SDS011;58775;46.992;9.518;2023-03-05T00:22:14;43.58;;;18.20;;
71116;SDS011;58775;46.992;9.518;2023-03-05T00:24:16;44.72;;;19.20;;
71116;SDS011;58775;46.992;9.518;2023-03-05T00:26:18;46.60;;;19.63;;
71116;SDS011;58775;46.992;9.518;2023-03-05T00:28:20;47.50;;;18.73;;
71116;SDS011;58775;46.992;9.518;2023-03-05T00:30:21;44.77;;;18.40;;
71116;SDS011;58775;46.992;9.518;2023-03-05T00:32:22;46.20;;;18.50;;
71116;SDS011;58775;46.992;9.518;2023-03-05T00:34:23;45.40;;;18.48;;
71116;SDS011;58775;46.992;9.518;2023-03-05T00:36:25;50.70;;;19.17;;
71116;SDS011;58775;46.992;9.518;2023-03-05T00:38:26;48.38;;;19.55;;
71116;SDS011;58775;46.992;9.518;2023-03-05T00:40:27;49.88;;;19.85;;
71116;SDS011;58775;46.992;9.518;2023-03-05T00:42:28;47.97;;;18.77;;
71116;SDS011;58775;46.992;9.518;2023-03-05T00:44:29;46.00;;;19.75;;
71116;SDS011;58775;46.992;9.518;2023-03-05T00:46:30;43.10;;;18.65;;
71116;SDS011;58775;46.992;9.518;2023-03-05T00:48:31;43.92;;;17.58;;
71116;SDS011;58775;46.992;9.518;2023-03-05T00:50:32;50.13;;;19.20;;
71116;SDS011;58775;46.992;9.518;2023-03-05T00:52:33;44.60;;;18.80;;
71116;SDS011;58775;46.992;9.518;2023-03-05T00:54:34;44.88;;;19.02;;
71116;SDS011;58775;46.992;9.518;2023-03-05T00:56:35;50.40;;;19.30;;
71116;SDS011;58775;46.992;9.518;2023-03-05T00:58:36;44.78;;;19.17;;
71116;SDS011;58775;46.992;9.518;2023-03-05T01:00:37;47.70;;;18.02;;
71116;SDS011;58775;46.992;9.518;2023-03-05T01:02:39;46.97;;;18.92;;
71116;SDS011;58775;46.992;9.518;2023-03-05T01:04:40;46.07;;;19.10;;
71116;SDS011;58775;46.992;9.518;2023-03-05T01:06:45;45.60;;;19.55;;
71116;SDS011;58775;46.992;9.518;2023-03-05T01:08:47;50.20;;;20.23;;
71116;SDS011;58775;46.992;9.518;2023-03-05T01:10:48;50.45;;;20.10;;
71116;SDS011;58775;46.992;9.518;2023-03-05T01:12:49;51.90;;;21.47;;
71116;SDS011;58775;46.992;9.518;2023-03-05T01:14:50;52.58;;;19.83;;
71116;SDS011;58775;46.992;9.518;2023-03-05T01:16:51;48.13;;;18.48;;
71116;SDS011;58775;46.992;9.518;2023-03-05T01:18:52;47.90;;;19.02;;
71116;SDS011;58775;46.992;9.518;2023-03-05T01:20:54;47.63;;;19.33;;
71116;SDS011;58775;46.992;9.518;2023-03-05T01:22:54;45.60;;;18.00;;
71116;SDS011;58775;46.992;9.518;2023-03-05T01:24:58;48.83;;;18.13;;
71116;SDS011;58775;46.992;9.518;2023-03-05T01:26:59;55.28;;;20.90;;
71116;SDS011;58775;46.992;9.518;2023-03-05T01:29:01;53.17;;;20.85;;
71116;SDS011;58775;46.992;9.518;2023-03-05T01:31:05;54.38;;;20.20;;
71116;SDS011;58775;46.992;9.518;2023-03-05T01:33:08;48.40;;;19.65;;
71116;SDS011;58775;46.992;9.518;2023-03-05T01:35:09;48.28;;;19.33;;
71116;SDS011;58775;46.992;9.518;2023-03-05T01:37:15;52.93;;;20.07;;
71116;SDS011;58775;46.992;9.518;2023-03-05T01:39:16;45.47;;;19.20;;
71116;SDS011;58775;46.992;9.518;2023-03-05T01:41:17;50.78;;;19.58;;
71116;SDS011;58775;46.992;9.518;2023-03-05T01:45:24;46.78;;;18.05;;
71116;SDS011;58775;46.992;9.518;2023-03-05T01:47:25;47.13;;;17.47;;
71116;SDS011;58775;46.992;9.518;2023-03-05T01:49:27;52.75;;;19.75;;
71116;SDS011;58775;46.992;9.518;2023-03-05T01:51:32;48.17;;;19.52;;
71116;SDS011;58775;46.992;9.518;2023-03-05T01:53:37;45.90;;;18.85;;
71116;SDS011;58775;46.992;9.518;2023-03-05T01:55:39;47.50;;;19.00;;
71116;SDS011;58775;46.992;9.518;2023-03-05T01:57:41;50.20;;;19.60;;
71116;SDS011;58775;46.992;9.518;2023-03-05T01:59:46;51.78;;;20.90;;
71116;SDS011;58775;46.992;9.518;2023-03-05T02:01:51;47.90;;;19.60;;
71116;SDS011;58775;46.992;9.518;2023-03-05T02:03:55;50.55;;;19.25;;
71116;SDS011;58775;46.992;9.518;2023-03-05T02:05:57;49.60;;;19.93;;
71116;SDS011;58775;46.992;9.518;2023-03-05T02:07:59;47.38;;;19.55;;
71116;SDS011;58775;46.992;9.518;2023-03-05T02:10:05;54.30;;;19.35;;
71116;SDS011;58775;46.992;9.518;2023-03-05T02:12:18;46.88;;;19.38;;
71116;SDS011;58775;46.992;9.518;2023-03-05T02:14:20;53.35;;;20.80;;
71116;SDS011;58775;46.992;9.518;2023-03-05T02:16:23;49.97;;;19.77;;
71116;SDS011;58775;46.992;9.518;2023-03-05T02:18:24;44.42;;;19.00;;
71116;SDS011;58775;46.992;9.518;2023-03-05T02:20:27;49.42;;;20.05;;
71116;SDS011;58775;46.992;9.518;2023-03-05T02:22:30;47.75;;;19.73;;
71116;SDS011;58775;46.992;9.518;2023-03-05T02:24:35;52.80;;;21.17;;
71116;SDS011;58775;46.992;9.518;2023-03-05T02:26:37;47.67;;;19.33;;
71116;SDS011;58775;46.992;9.518;2023-03-05T02:28:45;48.55;;;18.88;;
71116;SDS011;58775;46.992;9.518;2023-03-05T02:30:48;48.70;;;19.63;;
71116;SDS011;58775;46.992;9.518;2023-03-05T02:32:50;49.03;;;18.88;;
71116;SDS011;58775;46.992;9.518;2023-03-05T02:34:52;50.00;;;20.67;;
71116;SDS011;58775;46.992;9.518;2023-03-05T02:36:53;48.67;;;19.10;;
71116;SDS011;58775;46.992;9.518;2023-03-05T02:38:56;45.80;;;17.55;;
71116;SDS011;58775;46.992;9.518;2023-03-05T02:40:59;51.60;;;20.05;;
71116;SDS011;58775;46.992;9.518;2023-03-05T02:43:00;56.55;;;20.20;;
71116;SDS011;58775;46.992;9.518;2023-03-05T02:45:02;47.90;;;20.30;;
71116;SDS011;58775;46.992;9.518;2023-03-05T02:47:03;48.78;;;19.52;;
71116;SDS011;58775;46.992;9.518;2023-03-05T02:49:06;50.67;;;19.08;;
71116;SDS011;58775;46.992;9.518;2023-03-05T02:51:07;51.17;;;20.77;;
71116;SDS011;58775;46.992;9.518;2023-03-05T02:53:08;54.22;;;20.58;;
71116;SDS011;58775;46.992;9.518;2023-03-05T02:55:09;55.28;;;20.48;;
71116;SDS011;58775;46.992;9.518;2023-03-05T02:57:11;53.47;;;20.58;;
71116;SDS011;58775;46.992;9.518;2023-03-05T02:59:12;51.93;;;19.87;;
71116;SDS011;58775;46.992;9.518;2023-03-05T03:01:13;51.22;;;20.50;;
71116;SDS011;58775;46.992;9.518;2023-03-05T03:03:14;49.28;;;19.67;;
71116;SDS011;58775;46.992;9.518;2023-03-05T03:05:15;49.58;;;19.20;;
71116;SDS011;58775;46.992;9.518;2023-03-05T03:07:16;49.45;;;19.90;;
71116;SDS011;58775;46.992;9.518;2023-03-05T03:09:17;50.92;;;19.02;;
71116;SDS011;58775;46.992;9.518;2023-03-05T03:11:18;52.70;;;20.00;;
71116;SDS011;58775;46.992;9.518;2023-03-05T03:13:22;49.08;;;19.35;;
71116;SDS011;58775;46.992;9.518;2023-03-05T03:15:24;47.78;;;18.73;;
71116;SDS011;58775;46.992;9.518;2023-03-05T03:17:25;50.47;;;19.20;;
71116;SDS011;58775;46.992;9.518;2023-03-05T03:19:26;50.17;;;20.35;;
71116;SDS011;58775;46.992;9.518;2023-03-05T03:21:27;49.97;;;19.90;;
71116;SDS011;58775;46.992;9.518;2023-03-05T03:23:28;47.30;;;19.27;;
71116;SDS011;58775;46.992;9.518;2023-03-05T03:25:29;52.90;;;21.63;;
71116;SDS011;58775;46.992;9.518;2023-03-05T03:27:30;53.28;;;19.42;;
71116;SDS011;58775;46.992;9.518;2023-03-05T03:29:31;54.03;;;20.37;;
71116;SDS011;58775;46.992;9.518;2023-03-05T03:31:32;58.17;;;21.25;;
71116;SDS011;58775;46.992;9.518;2023-03-05T03:33:33;54.65;;;21.27;;
71116;SDS011;58775;46.992;9.518;2023-03-05T03:35:34;49.55;;;20.70;;
71116;SDS011;58775;46.992;9.518;2023-03-05T03:37:35;48.73;;;19.17;;
71116;SDS011;58775;46.992;9.518;2023-03-05T03:39:35;49.75;;;19.88;;
71116;SDS011;58775;46.992;9.518;2023-03-05T03:41:39;51.78;;;20.80;;
71116;SDS011;58775;46.992;9.518;2023-03-05T03:43:41;48.08;;;18.83;;
71116;SDS011;58775;46.992;9.518;2023-03-05T03:45:43;47.40;;;19.25;;
71116;SDS011;58775;46.992;9.518;2023-03-05T03:47:44;50.80;;;19.80;;
71116;SDS011;58775;46.992;9.518;2023-03-05T03:49:47;50.60;;;19.95;;
71116;SDS011;58775;46.992;9.518;2023-03-05T03:51:48;56.00;;;21.63;;
71116;SDS011;58775;46.992;9.518;2023-03-05T03:53:50;51.58;;;19.38;;
71116;SDS011;58775;46.992;9.518;2023-03-05T03:55:50;49.58;;;19.48;;
71116;SDS011;58775;46.992;9.518;2023-03-05T03:57:58;55.05;;;21.33;;
71116;SDS011;58775;46.992;9.518;2023-03-05T03:59:59;55.00;;;20.60;;
71116;SDS011;58775;46.992;9.518;2023-03-05T04:02:00;55.60;;;21.33;;
71116;SDS011;58775;46.992;9.518;2023-03-05T04:04:01;55.10;;;20.63;;
71116;SDS011;58775;46.992;9.518;2023-03-05T04:06:03;53.53;;;21.58;;
71116;SDS011;58775;46.992;9.518;2023-03-05T04:08:04;46.60;;;19.52;;
71116;SDS011;58775;46.992;9.518;2023-03-05T04:10:08;48.97;;;19.37;;
71116;SDS011;58775;46.992;9.518;2023-03-05T04:12:11;50.92;;;19.38;;
71116;SDS011;58775;46.992;9.518;2023-03-05T04:14:17;50.83;;;19.58;;
71116;SDS011;58775;46.992;9.518;2023-03-05T04:16:18;49.53;;;18.73;;
71116;SDS011;58775;46.992;9.518;2023-03-05T04:18:19;56.35;;;21.23;;
71116;SDS011;58775;46.992;9.518;2023-03-05T04:20:20;48.58;;;18.17;;
71116;SDS011;58775;46.992;9.518;2023-03-05T04:22:21;53.17;;;21.20;;
71116;SDS011;58775;46.992;9.518;2023-03-05T04:24:22;54.33;;;20.83;;
71116;SDS011;58775;46.992;9.518;2023-03-05T04:26:23;56.53;;;19.67;;
71116;SDS011;58775;46.992;9.518;2023-03-05T04:28:24;49.03;;;20.25;;
71116;SDS011;58775;46.992;9.518;2023-03-05T04:30:25;53.25;;;20.40;;
71116;SDS011;58775;46.992;9.518;2023-03-05T04:32:26;54.65;;;19.83;;
71116;SDS011;58775;46.992;9.518;2023-03-05T04:34:29;46.87;;;19.60;;
71116;SDS011;58775;46.992;9.518;2023-03-05T04:36:30;51.80;;;20.17;;
71116;SDS011;58775;46.992;9.518;2023-03-05T04:38:31;51.13;;;19.67;;
71116;SDS011;58775;46.992;9.518;2023-03-05T04:40:32;50.47;;;20.50;;
71116;SDS011;58775;46.992;9.518;2023-03-05T04:42:33;59.65;;;21.95;;
71116;SDS011;58775;46.992;9.518;2023-03-05T04:44:33;48.50;;;18.83;;
71116;SDS011;58775;46.992;9.518;2023-03-05T04:46:35;50.63;;;20.85;;
71116;SDS011;58775;46.992;9.518;2023-03-05T04:48:36;51.90;;;20.27;;
71116;SDS011;58775;46.992;9.518;2023-03-05T04:50:37;50.33;;;19.80;;
71116;SDS011;58775;46.992;9.518;2023-03-05T04:52:39;54.28;;;20.08;;
71116;SDS011;58775;46.992;9.518;2023-03-05T04:54:42;49.30;;;20.15;;
71116;SDS011;58775;46.992;9.518;2023-03-05T04:56:44;50.90;;;19.92;;
71116;SDS011;58775;46.992;9.518;2023-03-05T04:58:45;55.07;;;21.07;;
71116;SDS011;58775;46.992;9.518;2023-03-05T05:00:47;50.80;;;19.33;;
71116;SDS011;58775;46.992;9.518;2023-03-05T05:02:48;52.30;;;20.58;;
71116;SDS011;58775;46.992;9.518;2023-03-05T05:04:53;48.60;;;20.30;;
71116;SDS011;58775;46.992;9.518;2023-03-05T05:06:57;45.40;;;19.27;;
71116;SDS011;58775;46.992;9.518;2023-03-05T05:08:58;50.38;;;19.58;;
71116;SDS011;58775;46.992;9.518;2023-03-05T05:11:00;49.10;;;19.63;;
71116;SDS011;58775;46.992;9.518;2023-03-05T05:13:03;53.75;;;21.90;;
71116;SDS011;58775;46.992;9.518;2023-03-05T05:15:05;54.50;;;20.33;;
71116;SDS011;58775;46.992;9.518;2023-03-05T05:17:07;53.42;;;20.38;;
71116;SDS011;58775;46.992;9.518;2023-03-05T05:19:08;49.20;;;19.10;;
71116;SDS011;58775;46.992;9.518;2023-03-05T05:21:11;46.75;;;18.58;;
71116;SDS011;58775;46.992;9.518;2023-03-05T05:23:14;53.50;;;20.42;;
71116;SDS011;58775;46.992;9.518;2023-03-05T05:25:15;49.65;;;20.45;;
71116;SDS011;58775;46.992;9.518;2023-03-05T05:27:16;52.80;;;20.02;;
71116;SDS011;58775;46.992;9.518;2023-03-05T05:29:17;48.88;;;20.55;;
71116;SDS011;58775;46.992;9.518;2023-03-05T05:31:18;48.47;;;19.00;;
71116;SDS011;58775;46.992;9.518;2023-03-05T05:33:19;52.15;;;20.25;;
71116;SDS011;58775;46.992;9.518;2023-03-05T05:35:21;57.83;;;22.38;;
71116;SDS011;58775;46.992;9.518;2023-03-05T05:37:22;59.88;;;21.20;;
71116;SDS011;58775;46.992;9.518;2023-03-05T05:39:24;58.70;;;21.52;;
71116;SDS011;58775;46.992;9.518;2023-03-05T05:41:25;49.67;;;19.27;;
71116;SDS011;58775;46.992;9.518;2023-03-05T05:43:26;51.88;;;19.58;;
71116;SDS011;58775;46.992;9.518;2023-03-05T05:45:26;51.77;;;20.03;;
71116;SDS011;58775;46.992;9.518;2023-03-05T05:47:27;46.67;;;18.40;;
71116;SDS011;58775;46.992;9.518;2023-03-05T05:49:29;52.42;;;19.42;;
71116;SDS011;58775;46.992;9.518;2023-03-05T05:51:30;53.17;;;21.17;;
71116;SDS011;58775;46.992;9.518;2023-03-05T05:53:31;55.83;;;21.00;;
71116;SDS011;58775;46.992;9.518;2023-03-05T05:55:32;55.63;;;21.63;;
71116;SDS011;58775;46.992;9.518;2023-03-05T05:57:33;53.78;;;20.88;;
71116;SDS011;58775;46.992;9.518;2023-03-05T05:59:34;53.15;;;19.23;;
71116;SDS011;58775;46.992;9.518;2023-03-05T06:01:36;59.05;;;21.98;;
71116;SDS011;58775;46.992;9.518;2023-03-05T06:03:37;51.00;;;21.20;;
71116;SDS011;58775;46.992;9.518;2023-03-05T06:05:39;52.33;;;19.88;;
71116;SDS011;58775;46.992;9.518;2023-03-05T06:07:41;47.38;;;19.63;;
71116;SDS011;58775;46.992;9.518;2023-03-05T06:09:43;55.90;;;20.13;;
71116;SDS011;58775;46.992;9.518;2023-03-05T06:11:44;49.37;;;19.27;;
71116;SDS011;58775;46.992;9.518;2023-03-05T06:13:45;50.00;;;20.00;;
71116;SDS011;58775;46.992;9.518;2023-03-05T06:15:54;53.90;;;19.35;;
71116;SDS011;58775;46.992;9.518;2023-03-05T06:17:59;47.47;;;19.63;;
71116;SDS011;58775;46.992;9.518;2023-03-05T06:20:00;53.55;;;21.80;;
71116;SDS011;58775;46.992;9.518;2023-03-05T06:22:01;54.33;;;20.93;;
71116;SDS011;58775;46.992;9.518;2023-03-05T06:24:02;55.13;;;20.60;;
71116;SDS011;58775;46.992;9.518;2023-03-05T06:26:04;49.13;;;18.77;;
71116;SDS011;58775;46.992;9.518;2023-03-05T06:28:07;49.80;;;19.60;;
71116;SDS011;58775;46.992;9.518;2023-03-05T06:30:08;48.08;;;19.30;;
71116;SDS011;58775;46.992;9.518;2023-03-05T06:32:10;54.42;;;20.88;;
71116;SDS011;58775;46.992;9.518;2023-03-05T06:34:11;51.97;;;20.02;;
71116;SDS011;58775;46.992;9.518;2023-03-05T06:36:13;59.37;;;21.53;;
71116;SDS011;58775;46.992;9.518;2023-03-05T06:38:16;53.03;;;19.88;;
71116;SDS011;58775;46.992;9.518;2023-03-05T06:40:17;53.10;;;20.90;;
71116;SDS011;58775;46.992;9.518;2023-03-05T06:42:17;53.55;;;21.88;;
71116;SDS011;58775;46.992;9.518;2023-03-05T06:44:19;55.03;;;21.17;;
71116;SDS011;58775;46.992;9.518;2023-03-05T06:46:21;53.92;;;21.23;;
71116;SDS011;58775;46.992;9.518;2023-03-05T06:48:26;47.08;;;19.23;;
71116;SDS011;58775;46.992;9.518;2023-03-05T06:50:27;50.90;;;19.13;;
71116;SDS011;58775;46.992;9.518;2023-03-05T06:52:28;46.15;;;19.05;;
71116;SDS011;58775;46.992;9.518;2023-03-05T06:54:29;50.03;;;19.05;;
71116;SDS011;58775;46.992;9.518;2023-03-05T06:56:30;54.00;;;20.60;;
71116;SDS011;58775;46.992;9.518;2023-03-05T06:58:31;58.03;;;20.50;;
71116;SDS011;58775;46.992;9.518;2023-03-05T07:00:32;51.25;;;20.08;;
71116;SDS011;58775;46.992;9.518;2023-03-05T07:02:33;55.78;;;21.67;;
71116;SDS011;58775;46.992;9.518;2023-03-05T07:04:34;49.63;;;20.20;;
71116;SDS011;58775;46.992;9.518;2023-03-05T07:06:35;56.10;;;20.55;;
71116;SDS011;58775;46.992;9.518;2023-03-05T07:08:38;50.03;;;19.38;;
71116;SDS011;58775;46.992;9.518;2023-03-05T07:10:40;47.65;;;19.40;;
71116;SDS011;58775;46.992;9.518;2023-03-05T07:12:42;50.33;;;20.13;;
71116;SDS011;58775;46.992;9.518;2023-03-05T07:14:43;52.03;;;20.15;;
71116;SDS011;58775;46.992;9.518;2023-03-05T07:16:44;56.00;;;20.75;;
71116;SDS011;58775;46.992;9.518;2023-03-05T07:18:45;49.88;;;19.88;;
71116;SDS011;58775;46.992;9.518;2023-03-05T07:20:46;56.85;;;21.13;;
71116;SDS011;58775;46.992;9.518;2023-03-05T07:22:47;48.00;;;18.98;;
71116;SDS011;58775;46.992;9.518;2023-03-05T07:24:48;52.72;;;20.35;;
71116;SDS011;58775;46.992;9.518;2023-03-05T07:26:50;46.95;;;18.42;;
71116;SDS011;58775;46.992;9.518;2023-03-05T07:28:51;56.17;;;20.37;;
71116;SDS011;58775;46.992;9.518;2023-03-05T07:31:34;51.53;;;20.00;;
71116;SDS011;58775;46.992;9.518;2023-03-05T07:33:18;54.75;;;20.92;;
71116;SDS011;58775;46.992;9.518;2023-03-05T07:35:19;53.50;;;20.48;;
71116;SDS011;58775;46.992;9.518;2023-03-05T07:37:20;49.40;;;20.87;;
71116;SDS011;58775;46.992;9.518;2023-03-05T07:39:21;50.33;;;20.70;;
71116;SDS011;58775;46.992;9.518;2023-03-05T07:41:22;55.80;;;20.83;;
71116;SDS011;58775;46.992;9.518;2023-03-05T07:43:23;50.80;;;19.33;;
71116;SDS011;58775;46.992;9.518;2023-03-05T07:45:24;55.77;;;21.60;;
71116;SDS011;58775;46.992;9.518;2023-03-05T07:47:25;53.00;;;20.27;;
71116;SDS011;58775;46.992;9.518;2023-03-05T07:49:26;56.17;;;21.73;;
71116;SDS011;58775;46.992;9.518;2023-03-05T07:51:27;49.92;;;19.73;;
71116;SDS011;58775;46.992;9.518;2023-03-05T07:53:28;53.72;;;21.55;;
71116;SDS011;58775;46.992;9.518;2023-03-05T07:55:29;52.50;;;21.55;;
71116;SDS011;58775;46.992;9.518;2023-03-05T07:57:30;54.70;;;20.27;;
71116;SDS011;58775;46.992;9.518;2023-03-05T07:59:31;52.67;;;21.58;;
71116;SDS011;58775;46.992;9.518;2023-03-05T08:01:32;49.50;;;19.75;;
71116;SDS011;58775;46.992;9.518;2023-03-05T08:03:37;48.58;;;20.05;;
71116;SDS011;58775;46.992;9.518;2023-03-05T08:05:39;51.75;;;20.10;;
71116;SDS011;58775;46.992;9.518;2023-03-05T08:07:40;48.63;;;19.80;;
71116;SDS011;58775;46.992;9.518;2023-03-05T08:09:40;49.45;;;19.48;;
71116;SDS011;58775;46.992;9.518;2023-03-05T08:11:42;49.40;;;19.15;;
71116;SDS011;58775;46.992;9.518;2023-03-05T08:13:43;48.42;;;20.35;;
71116;SDS011;58775;46.992;9.518;2023-03-05T08:15:44;47.63;;;19.13;;
71116;SDS011;58775;46.992;9.518;2023-03-05T08:17:45;46.42;;;19.40;;
71116;SDS011;58775;46.992;9.518;2023-03-05T08:19:46;46.37;;;19.27;;
71116;SDS011;58775;46.992;9.518;2023-03-05T08:21:47;46.15;;;19.83;;
71116;SDS011;58775;46.992;9.518;2023-03-05T08:23:48;47.40;;;20.48;;
71116;SDS011;58775;46.992;9.518;2023-03-05T08:25:49;47.45;;;19.95;;
71116;SDS011;58775;46.992;9.518;2023-03-05T08:27:50;47.08;;;20.55;;
71116;SDS011;58775;46.992;9.518;2023-03-05T08:29:51;54.10;;;20.00;;
71116;SDS011;58775;46.992;9.518;2023-03-05T08:31:52;44.88;;;20.08;;
71116;SDS011;58775;46.992;9.518;2023-03-05T08:33:54;55.00;;;22.33;;
71116;SDS011;58775;46.992;9.518;2023-03-05T08:35:56;50.42;;;21.17;;
71116;SDS011;58775;46.992;9.518;2023-03-05T08:37:57;46.38;;;19.70;;
71116;SDS011;58775;46.992;9.518;2023-03-05T08:39:58;45.25;;;20.13;;
71116;SDS011;58775;46.992;9.518;2023-03-05T08:41:59;48.03;;;20.23;;
71116;SDS011;58775;46.992;9.518;2023-03-05T08:44:00;50.88;;;20.25;;
71116;SDS011;58775;46.992;9.518;2023-03-05T08:46:01;48.08;;;20.88;;
71116;SDS011;58775;46.992;9.518;2023-03-05T08:48:03;45.75;;;20.85;;
71116;SDS011;58775;46.992;9.518;2023-03-05T08:50:04;45.33;;;20.67;;
71116;SDS011;58775;46.992;9.518;2023-03-05T08:52:06;43.25;;;20.23;;
71116;SDS011;58775;46.992;9.518;2023-03-05T08:54:07;47.88;;;20.85;;
71116;SDS011;58775;46.992;9.518;2023-03-05T08:56:09;51.97;;;22.45;;
71116;SDS011;58775;46.992;9.518;2023-03-05T08:58:10;46.58;;;19.65;;
71116;SDS011;58775;46.992;9.518;2023-03-05T09:00:11;47.90;;;19.67;;
71116;SDS011;58775;46.992;9.518;2023-03-05T09:02:13;51.50;;;20.63;;
71116;SDS011;58775;46.992;9.518;2023-03-05T09:04:14;44.15;;;19.52;;
71116;SDS011;58775;46.992;9.518;2023-03-05T09:06:15;45.90;;;19.92;;
71116;SDS011;58775;46.992;9.518;2023-03-05T09:08:16;46.50;;;20.13;;
71116;SDS011;58775;46.992;9.518;2023-03-05T09:10:17;48.85;;;20.42;;
71116;SDS011;58775;46.992;9.518;2023-03-05T09:12:18;43.47;;;18.42;;
71116;SDS011;58775;46.992;9.518;2023-03-05T09:14:19;43.27;;;20.00;;
71116;SDS011;58775;46.992;9.518;2023-03-05T09:16:20;41.22;;;20.15;;
71116;SDS011;58775;46.992;9.518;2023-03-05T09:18:21;42.15;;;19.63;;
71116;SDS011;58775;46.992;9.518;2023-03-05T09:20:22;43.22;;;20.73;;
71116;SDS011;58775;46.992;9.518;2023-03-05T09:22:23;41.33;;;19.37;;
71116;SDS011;58775;46.992;9.518;2023-03-05T09:24:24;43.72;;;20.02;;
71116;SDS011;58775;46.992;9.518;2023-03-05T09:26:25;39.97;;;19.85;;
71116;SDS011;58775;46.992;9.518;2023-03-05T09:28:27;43.22;;;19.60;;
71116;SDS011;58775;46.992;9.518;2023-03-05T09:30:28;48.70;;;20.25;;
71116;SDS011;58775;46.992;9.518;2023-03-05T09:32:29;40.67;;;20.53;;
71116;SDS011;58775;46.992;9.518;2023-03-05T09:34:30;39.17;;;17.75;;
71116;SDS011;58775;46.992;9.518;2023-03-05T09:36:31;37.85;;;18.48;;
71116;SDS011;58775;46.992;9.518;2023-03-05T09:38:32;38.80;;;18.95;;
71116;SDS011;58775;46.992;9.518;2023-03-05T09:40:50;39.78;;;18.70;;
71116;SDS011;58775;46.992;9.518;2023-03-05T09:43:18;35.93;;;17.73;;
71116;SDS011;58775;46.992;9.518;2023-03-05T09:46:11;38.15;;;18.58;;
71116;SDS011;58775;46.992;9.518;2023-03-05T09:48:31;40.58;;;18.45;;
71116;SDS011;58775;46.992;9.518;2023-03-05T09:50:51;38.70;;;19.13;;
71116;SDS011;58775;46.992;9.518;2023-03-05T09:53:43;39.28;;;19.08;;
71116;SDS011;58775;46.992;9.518;2023-03-05T09:55:34;43.10;;;17.77;;
71116;SDS011;58775;46.992;9.518;2023-03-05T09:57:41;40.38;;;18.13;;
71116;SDS011;58775;46.992;9.518;2023-03-05T09:59:50;43.28;;;19.85;;
71116;SDS011;58775;46.992;9.518;2023-03-05T10:01:57;40.28;;;19.33;;
71116;SDS011;58775;46.992;9.518;2023-03-05T10:04:05;42.75;;;19.13;;
71116;SDS011;58775;46.992;9.518;2023-03-05T10:09:05;42.08;;;19.02;;
71116;SDS011;58775;46.992;9.518;2023-03-05T10:11:12;37.85;;;18.70;;
71116;SDS011;58775;46.992;9.518;2023-03-05T10:13:34;42.45;;;19.05;;
71116;SDS011;58775;46.992;9.518;2023-03-05T10:15:41;39.13;;;18.05;;
71116;SDS011;58775;46.992;9.518;2023-03-05T10:27:29;41.53;;;18.15;;
71116;SDS011;58775;46.992;9.518;2023-03-05T10:29:53;38.13;;;16.87;;
71116;SDS011;58775;46.992;9.518;2023-03-05T10:32:02;38.00;;;17.30;;
71116;SDS011;58775;46.992;9.518;2023-03-05T10:39:31;38.75;;;17.80;;
71116;SDS011;58775;46.992;9.518;2023-03-05T10:42:06;36.50;;;16.73;;
71116;SDS011;58775;46.992;9.518;2023-03-05T10:44:20;37.20;;;16.70;;
71116;SDS011;58775;46.992;9.518;2023-03-05T10:46:35;37.30;;;18.75;;
71116;SDS011;58775;46.992;9.518;2023-03-05T10:50:58;43.70;;;19.17;;
71116;SDS011;58775;46.992;9.518;2023-03-05T10:55:14;41.33;;;18.40;;
71116;SDS011;58775;46.992;9.518;2023-03-05T10:57:21;48.00;;;20.38;;
71116;SDS011;58775;46.992;9.518;2023-03-05T10:59:24;39.30;;;19.00;;
71116;SDS011;58775;46.992;9.518;2023-03-05T11:01:26;40.87;;;18.27;;
71116;SDS011;58775;46.992;9.518;2023-03-05T11:03:44;45.97;;;19.80;;
71116;SDS011;58775;46.992;9.518;2023-03-05T11:05:59;43.88;;;20.60;;
71116;SDS011;58775;46.992;9.518;2023-03-05T11:10:24;43.80;;;20.92;;
71116;SDS011;58775;46.992;9.518;2023-03-05T11:12:25;44.47;;;20.33;;
71116;SDS011;58775;46.992;9.518;2023-03-05T11:14:28;39.20;;;18.58;;
71116;SDS011;58775;46.992;9.518;2023-03-05T11:16:33;41.83;;;19.80;;
71116;SDS011;58775;46.992;9.518;2023-03-05T11:18:47;43.40;;;20.27;;
71116;SDS011;58775;46.992;9.518;2023-03-05T11:20:49;41.40;;;19.20;;
71116;SDS011;58775;46.992;9.518;2023-03-05T11:23:09;40.90;;;19.10;;
71116;SDS011;58775;46.992;9.518;2023-03-05T11:25:18;39.97;;;18.95;;
71116;SDS011;58775;46.992;9.518;2023-03-05T11:27:23;45.33;;;20.25;;
71116;SDS011;58775;46.992;9.518;2023-03-05T11:29:31;40.47;;;19.30;;
71116;SDS011;58775;46.992;9.518;2023-03-05T11:31:34;38.95;;;17.08;;
71116;SDS011;58775;46.992;9.518;2023-03-05T11:33:35;38.97;;;18.10;;
71116;SDS011;58775;46.992;9.518;2023-03-05T11:35:37;36.00;;;18.25;;
71116;SDS011;58775;46.992;9.518;2023-03-05T11:37:41;35.78;;;17.48;;
71116;SDS011;58775;46.992;9.518;2023-03-05T11:39:42;38.03;;;18.23;;
71116;SDS011;58775;46.992;9.518;2023-03-05T11:41:44;36.53;;;17.65;;
71116;SDS011;58775;46.992;9.518;2023-03-05T11:43:49;40.00;;;18.50;;
71116;SDS011;58775;46.992;9.518;2023-03-05T11:45:53;34.38;;;17.85;;
71116;SDS011;58775;46.992;9.518;2023-03-05T11:48:46;40.90;;;18.20;;
71116;SDS011;58775;46.992;9.518;2023-03-05T11:50:27;35.83;;;18.02;;
71116;SDS011;58775;46.992;9.518;2023-03-05T11:52:45;36.72;;;18.13;;
71116;SDS011;58775;46.992;9.518;2023-03-05T11:54:53;36.50;;;17.08;;
71116;SDS011;58775;46.992;9.518;2023-03-05T11:57:08;37.60;;;18.50;;
71116;SDS011;58775;46.992;9.518;2023-03-05T11:59:17;38.13;;;17.70;;
71116;SDS011;58775;46.992;9.518;2023-03-05T12:01:22;41.85;;;17.90;;
71116;SDS011;58775;46.992;9.518;2023-03-05T12:03:29;37.92;;;17.65;;
71116;SDS011;58775;46.992;9.518;2023-03-05T12:05:34;37.47;;;17.33;;
71116;SDS011;58775;46.992;9.518;2023-03-05T12:07:40;40.60;;;18.48;;
71116;SDS011;58775;46.992;9.518;2023-03-05T12:09:47;34.88;;;17.25;;
71116;SDS011;58775;46.992;9.518;2023-03-05T12:12:05;38.10;;;16.80;;
71116;SDS011;58775;46.992;9.518;2023-03-05T12:14:31;36.47;;;16.85;;
71116;SDS011;58775;46.992;9.518;2023-03-05T12:16:57;33.33;;;17.10;;
71116;SDS011;58775;46.992;9.518;2023-03-05T12:21:52;37.40;;;16.58;;
71116;SDS011;58775;46.992;9.518;2023-03-05T12:23:55;34.28;;;16.77;;
71116;SDS011;58775;46.992;9.518;2023-03-05T12:26:01;39.40;;;18.15;;
71116;SDS011;58775;46.992;9.518;2023-03-05T12:28:01;37.42;;;17.55;;
71116;SDS011;58775;46.992;9.518;2023-03-05T12:30:03;41.55;;;18.58;;
71116;SDS011;58775;46.992;9.518;2023-03-05T12:34:34;38.28;;;17.13;;